Time,TemperatureF,DewpointF,PressureIn,WindDirection,WindDirectionDegrees,WindSpeedMPH,WindSpeedGustMPH,Humidity,HourlyPrecipIn,Conditions,Clouds,dailyrainin,SoftwareType,DateUTC
2013-01-23 00:04:00,53.4,26.4,30.05,NNW,337,2.2,-999.0,35,-99.99,,,0.00,Acu-Link.com,2013-01-23 08:04:00,
2013-01-23 00:19:00,54.0,26.3,30.05,NNW,337,1.7,-999.0,34,-99.99,,,0.00,Acu-Link.com,2013-01-23 08:19:00,
2013-01-23 00:34:00,54.0,26.3,30.05,NNW,337,1.7,-999.0,34,-99.99,,,0.00,Acu-Link.com,2013-01-23 08:34:00,
2013-01-23 00:49:00,53.6,25.9,30.05,NNW,337,0.0,-999.0,34,-99.99,,,0.00,Acu-Link.com,2013-01-23 08:49:00,
2013-01-23 01:14:00,53.1,26.9,30.06,NNW,337,1.1,-999.0,36,-99.99,,,0.00,Acu-Link.com,2013-01-23 09:14:00,
2013-01-23 01:30:00,52.7,27.2,30.05,NNW,337,1.7,-999.0,37,-99.99,,,0.00,Acu-Link.com,2013-01-23 09:30:00,
2013-01-23 01:45:00,52.7,27.2,30.05,NNW,337,0.0,-999.0,37,-99.99,,,0.00,Acu-Link.com,2013-01-23 09:45:00,
2013-01-23 02:00:00,53.8,28.1,30.05,NNW,337,1.7,-999.0,37,-99.99,,,0.00,Acu-Link.com,2013-01-23 10:00:00,
2013-01-23 02:15:00,54.5,27.4,30.05,NNW,337,1.7,-999.0,35,-99.99,,,0.00,Acu-Link.com,2013-01-23 10:15:00,
2013-01-23 02:30:00,55.0,27.2,30.04,NNW,337,1.1,-999.0,34,-99.99,,,0.00,Acu-Link.com,2013-01-23 10:30:00,
2013-01-23 02:45:00,56.3,27.6,30.05,NNW,337,1.7,-999.0,33,-99.99,,,0.00,Acu-Link.com,2013-01-23 10:45:00,
2013-01-23 03:00:00,56.8,27.3,30.04,NNW,337,2.2,-999.0,32,-99.99,,,0.00,Acu-Link.com,2013-01-23 11:00:00,
2013-01-23 03:16:00,56.8,26.5,30.03,NNW,337,2.2,-999.0,31,-99.99,,,0.00,Acu-Link.com,2013-01-23 11:16:00,
2013-01-23 03:31:00,56.5,26.2,30.03,NNW,337,2.2,-999.0,31,-99.99,,,0.00,Acu-Link.com,2013-01-23 11:31:00,
2013-01-23 03:46:00,56.7,26.4,30.04,NNW,337,2.2,-999.0,31,-99.99,,,0.00,Acu-Link.com,2013-01-23 11:46:00,
2013-01-23 04:16:00,56.8,26.5,30.03,NNW,337,1.1,-999.0,31,-99.99,,,0.00,Acu-Link.com,2013-01-23 12:16:00,
2013-01-23 04:32:00,56.5,26.2,30.03,NNW,337,1.7,-999.0,31,-99.99,,,0.00,Acu-Link.com,2013-01-23 12:32:00,
2013-01-23 05:02:00,56.1,25.9,30.02,NNW,337,1.1,-999.0,31,-99.99,,,0.00,Acu-Link.com,2013-01-23 13:02:00,
2013-01-23 05:17:00,55.6,27.0,30.02,NNW,337,1.7,-999.0,33,-99.99,,,0.00,Acu-Link.com,2013-01-23 13:17:00,
2013-01-23 05:32:00,55.8,27.1,30.03,NNW,337,1.7,-999.0,33,-99.99,,,0.00,Acu-Link.com,2013-01-23 13:32:00,
2013-01-23 05:48:00,55.6,27.0,30.03,NNW,337,0.0,-999.0,33,-99.99,,,0.00,Acu-Link.com,2013-01-23 13:48:00,
2013-01-23 06:03:00,55.4,26.8,30.03,NNW,337,1.1,-999.0,33,-99.99,,,0.00,Acu-Link.com,2013-01-23 14:03:00,
2013-01-23 06:18:00,55.6,27.7,30.03,NNW,337,1.7,-999.0,34,-99.99,,,0.00,Acu-Link.com,2013-01-23 14:18:00,
2013-01-23 06:33:00,55.0,27.9,30.03,NNW,337,1.7,-999.0,35,-99.99,,,0.00,Acu-Link.com,2013-01-23 14:33:00,
2013-01-23 06:48:00,54.3,27.9,30.03,NNW,337,2.2,-999.0,36,-99.99,,,0.00,Acu-Link.com,2013-01-23 14:48:00,
2013-01-23 07:04:00,54.0,27.7,30.04,NNW,337,0.0,-999.0,36,-99.99,,,0.00,Acu-Link.com,2013-01-23 15:04:00,
2013-01-23 07:19:00,54.5,28.1,30.03,NNW,337,2.2,-999.0,36,-99.99,,,0.00,Acu-Link.com,2013-01-23 15:19:00,
2013-01-23 07:34:00,55.4,28.9,30.03,NNW,337,2.7,-999.0,36,-99.99,,,0.00,Acu-Link.com,2013-01-23 15:34:00,
2013-01-23 07:49:00,56.3,29.7,30.03,NNW,337,2.7,-999.0,36,-99.99,,,0.00,Acu-Link.com,2013-01-23 15:49:00,
2013-01-23 08:04:00,57.4,30.0,30.03,NNW,337,1.1,-999.0,35,-99.99,,,0.00,Acu-Link.com,2013-01-23 16:04:00,
2013-01-23 08:20:00,58.6,31.0,30.04,NNW,337,1.1,-999.0,35,-99.99,,,0.00,Acu-Link.com,2013-01-23 16:20:00,
2013-01-23 08:35:00,58.8,31.2,30.04,NNW,337,1.1,-999.0,35,-99.99,,,0.00,Acu-Link.com,2013-01-23 16:35:00,
2013-01-23 08:50:00,59.5,31.8,30.04,NNW,337,0.0,-999.0,35,-99.99,,,0.00,Acu-Link.com,2013-01-23 16:50:00,
2013-01-23 09:05:00,60.6,33.5,30.04,NNW,337,0.0,-999.0,36,-99.99,,,0.00,Acu-Link.com,2013-01-23 17:05:00,
2013-01-23 09:21:00,62.1,34.8,30.04,NNW,337,1.1,-999.0,36,-99.99,,,0.00,Acu-Link.com,2013-01-23 17:21:00,
2013-01-23 09:36:00,62.8,35.4,30.05,NNW,337,1.1,-999.0,36,-99.99,,,0.00,Acu-Link.com,2013-01-23 17:36:00,
2013-01-23 09:51:00,64.2,37.4,30.05,NNW,337,0.0,-999.0,37,-99.99,,,0.00,Acu-Link.com,2013-01-23 17:51:00,
2013-01-23 10:06:00,65.5,39.2,30.05,NNW,337,1.7,-999.0,38,-99.99,,,0.00,Acu-Link.com,2013-01-23 18:06:00,
2013-01-23 10:21:00,67.3,40.1,30.05,NNW,337,2.2,-999.0,37,-99.99,,,0.00,Acu-Link.com,2013-01-23 18:21:00,
2013-01-23 10:37:00,67.8,39.1,30.05,NNW,337,0.0,-999.0,35,-99.99,,,0.00,Acu-Link.com,2013-01-23 18:37:00,
2013-01-23 10:52:00,68.4,39.7,30.05,NNW,337,1.7,-999.0,35,-99.99,,,0.00,Acu-Link.com,2013-01-23 18:52:00,
2013-01-23 11:07:00,72.7,43.5,30.05,NNW,337,0.0,-999.0,35,-99.99,,,0.00,Acu-Link.com,2013-01-23 19:07:00,
2013-01-23 11:22:00,75.0,45.5,30.05,NNW,337,0.0,-999.0,35,-99.99,,,0.00,Acu-Link.com,2013-01-23 19:22:00,
2013-01-23 11:37:00,76.1,45.7,30.04,NNW,337,1.1,-999.0,34,-99.99,,,0.00,Acu-Link.com,2013-01-23 19:37:00,
2013-01-23 11:53:00,77.7,45.5,30.03,ESE,112,3.2,-999.0,32,-99.99,,,0.00,Acu-Link.com,2013-01-23 19:53:00,
2013-01-23 12:08:00,77.9,44.0,30.02,NNW,337,2.2,-999.0,30,-99.99,,,0.00,Acu-Link.com,2013-01-23 20:08:00,
2013-01-23 12:23:00,77.4,42.6,30.02,East,90,1.7,-999.0,29,-99.99,,,0.00,Acu-Link.com,2013-01-23 20:23:00,
2013-01-23 12:38:00,77.0,41.4,30.01,ESE,112,1.1,-999.0,28,-99.99,,,0.00,Acu-Link.com,2013-01-23 20:38:00,
2013-01-23 12:53:00,77.7,42.0,30.02,ESE,112,0.0,-999.0,28,-99.99,,,0.00,Acu-Link.com,2013-01-23 20:53:00,
2013-01-23 13:09:00,74.8,40.4,30.01,SW,225,2.7,-999.0,29,-99.99,,,0.00,Acu-Link.com,2013-01-23 21:09:00,
2013-01-23 13:24:00,74.3,41.7,30.00,North,0,0.0,-999.0,31,-99.99,,,0.00,Acu-Link.com,2013-01-23 21:24:00,
2013-01-23 13:39:00,72.7,40.3,30.01,North,0,0.0,-999.0,31,-99.99,,,0.00,Acu-Link.com,2013-01-23 21:39:00,
2013-01-23 13:54:00,72.5,41.0,30.00,ESE,112,2.7,-999.0,32,-99.99,,,0.00,Acu-Link.com,2013-01-23 21:54:00,
2013-01-23 14:10:00,71.6,41.7,30.01,ESE,112,0.0,-999.0,34,-99.99,,,0.00,Acu-Link.com,2013-01-23 22:10:00,
2013-01-23 14:25:00,71.1,42.0,30.01,ESE,112,0.0,-999.0,35,-99.99,,,0.00,Acu-Link.com,2013-01-23 22:25:00,
2013-01-23 14:40:00,70.9,41.9,30.01,ESE,112,2.7,-999.0,35,-99.99,,,0.00,Acu-Link.com,2013-01-23 22:40:00,
2013-01-23 14:55:00,70.5,41.5,30.02,ESE,112,0.0,-999.0,35,-99.99,,,0.00,Acu-Link.com,2013-01-23 22:55:00,
2013-01-23 15:10:00,70.3,41.3,30.00,ESE,112,1.7,-999.0,35,-99.99,,,0.00,Acu-Link.com,2013-01-23 23:10:00,
2013-01-23 15:26:00,70.0,41.1,29.99,North,0,2.7,-999.0,35,-99.99,,,0.00,Acu-Link.com,2013-01-23 23:26:00,
2013-01-23 15:41:00,69.4,40.6,29.99,North,0,1.1,-999.0,35,-99.99,,,0.00,Acu-Link.com,2013-01-23 23:41:00,
2013-01-23 15:56:00,68.9,39.4,30.00,North,0,1.1,-999.0,34,-99.99,,,0.00,Acu-Link.com,2013-01-23 23:56:00,
2013-01-23 16:11:00,68.0,37.8,29.99,North,0,2.2,-999.0,33,-99.99,,,0.00,Acu-Link.com,2013-01-24 00:11:00,
2013-01-23 16:27:00,66.7,35.9,30.00,North,0,2.2,-999.0,32,-99.99,,,0.00,Acu-Link.com,2013-01-24 00:27:00,
2013-01-23 16:42:00,64.8,35.0,30.03,North,0,2.2,-999.0,33,-99.99,,,0.00,Acu-Link.com,2013-01-24 00:42:00,
2013-01-23 16:57:00,64.4,35.4,30.02,North,0,0.0,-999.0,34,-99.99,,,0.00,Acu-Link.com,2013-01-24 00:57:00,
2013-01-23 17:13:00,63.5,35.4,30.03,NNW,337,2.2,-999.0,35,-99.99,,,0.00,Acu-Link.com,2013-01-24 01:13:00,
2013-01-23 17:28:00,62.8,35.4,30.01,NNW,337,2.2,-999.0,36,-99.99,,,0.00,Acu-Link.com,2013-01-24 01:28:00,
2013-01-23 17:43:00,62.2,35.6,30.02,SSE,157,3.2,-999.0,37,-99.99,,,0.00,Acu-Link.com,2013-01-24 01:43:00,
2013-01-23 17:58:00,61.9,35.3,30.03,SSW,202,2.2,-999.0,37,-99.99,,,0.00,Acu-Link.com,2013-01-24 01:58:00,
2013-01-23 18:13:00,61.3,35.5,30.05,SSW,202,2.2,-999.0,38,-99.99,,,0.00,Acu-Link.com,2013-01-24 02:13:00,
2013-01-23 18:29:00,60.6,35.5,30.05,SSW,202,1.7,-999.0,39,-99.99,,,0.00,Acu-Link.com,2013-01-24 02:29:00,
2013-01-23 18:44:00,60.4,36.0,30.05,WNW,292,0.0,-999.0,40,-99.99,,,0.00,Acu-Link.com,2013-01-24 02:44:00,
2013-01-23 18:59:00,60.1,35.7,30.05,WNW,292,0.0,-999.0,40,-99.99,,,0.00,Acu-Link.com,2013-01-24 02:59:00,
2013-01-23 19:14:00,59.5,35.8,30.03,WNW,292,1.1,-999.0,41,-99.99,,,0.00,Acu-Link.com,2013-01-24 03:14:00,
2013-01-23 19:30:00,59.2,36.1,30.04,WNW,292,2.7,-999.0,42,-99.99,,,0.00,Acu-Link.com,2013-01-24 03:30:00,
2013-01-23 19:45:00,58.6,36.2,30.02,WNW,292,0.0,-999.0,43,-99.99,,,0.00,Acu-Link.com,2013-01-24 03:45:00,
2013-01-23 20:00:00,58.3,36.5,30.03,WNW,292,0.0,-999.0,44,-99.99,,,0.00,Acu-Link.com,2013-01-24 04:00:00,
2013-01-23 20:15:00,57.9,37.2,30.02,WNW,292,1.1,-999.0,46,-99.99,,,0.00,Acu-Link.com,2013-01-24 04:15:00,
2013-01-23 20:30:00,57.6,37.5,30.01,WNW,292,0.0,-999.0,47,-99.99,,,0.00,Acu-Link.com,2013-01-24 04:30:00,
2013-01-23 20:46:00,56.3,37.9,30.04,SSW,202,3.2,-999.0,50,-99.99,,,0.00,Acu-Link.com,2013-01-24 04:46:00,
2013-01-23 21:01:00,55.8,38.9,30.06,SSE,157,2.7,-999.0,53,-99.99,,,0.00,Acu-Link.com,2013-01-24 05:01:00,
2013-01-23 21:16:00,54.9,40.0,30.06,SSE,157,0.0,-999.0,57,-99.99,,,0.00,Acu-Link.com,2013-01-24 05:16:00,
2013-01-23 21:31:00,54.5,40.5,30.06,SSE,157,0.0,-999.0,59,-99.99,,,0.00,Acu-Link.com,2013-01-24 05:31:00,
2013-01-23 21:46:00,54.7,41.1,30.07,SSE,157,2.2,-999.0,60,-99.99,,,0.00,Acu-Link.com,2013-01-24 05:46:00,
2013-01-23 22:02:00,54.9,41.3,30.09,SSE,157,0.0,-999.0,60,-99.99,,,0.00,Acu-Link.com,2013-01-24 06:02:00,
2013-01-23 22:17:00,54.1,41.0,30.10,SSE,157,0.0,-999.0,61,-99.99,,,0.00,Acu-Link.com,2013-01-24 06:17:00,
2013-01-23 22:32:00,53.4,41.9,30.11,SSE,157,1.1,-999.0,65,-99.99,,,0.00,Acu-Link.com,2013-01-24 06:32:00,
2013-01-23 22:47:00,53.1,43.2,30.11,SSE,157,1.7,-999.0,69,-99.99,,,0.00,Acu-Link.com,2013-01-24 06:47:00,
2013-01-23 23:02:00,52.7,43.9,30.11,SSE,157,0.0,-999.0,72,-99.99,,,0.02,Acu-Link.com,2013-01-24 07:02:00,
2013-01-23 23:18:00,52.2,44.2,30.11,SSE,157,1.1,-999.0,74,-99.99,,,0.04,Acu-Link.com,2013-01-24 07:18:00,
2013-01-23 23:33:00,52.0,45.0,30.12,SSE,157,0.0,-999.0,77,-99.99,,,0.06,Acu-Link.com,2013-01-24 07:33:00,
2013-01-23 23:48:00,51.8,45.8,30.12,SSE,157,1.1,-999.0,80,-99.99,,,0.12,Acu-Link.com,2013-01-24 07:48:00,